sensor_id;sensor_type;location;lat;lon;timestamp;pressure;altitude;pressure_sealevel;temperature;humidity
57250;BME280;43102;52.014;-0.680;2023-02-22T00:00:00;100331;;;8.46;77.28
57250;BME280;43102;52.014;-0.680;2023-02-22T00:01:00;100331;;;8.46;77.28
57250;BME280;43102;52.014;-0.680;2023-02-22T00:02:00;100327;;;8.43;77.44
57250;BME280;43102;52.014;-0.680;2023-02-22T00:03:00;100327;;;8.43;77.44
57250;BME280;43102;52.014;-0.680;2023-02-22T00:04:01;100327;;;8.43;77.44
57250;BME280;43102;52.014;-0.680;2023-02-22T00:05:00;100327;;;8.43;77.44
57250;BME280;43102;52.014;-0.680;2023-02-22T00:06:01;100327;;;8.43;77.44
57250;BME280;43102;52.014;-0.680;2023-02-22T00:07:00;100315;;;8.38;77.69
57250;BME280;43102;52.014;-0.680;2023-02-22T00:08:00;100315;;;8.38;77.69
57250;BME280;43102;52.014;-0.680;2023-02-22T00:09:00;100315;;;8.38;77.69
57250;BME280;43102;52.014;-0.680;2023-02-22T00:10:00;100315;;;8.38;77.69
57250;BME280;43102;52.014;-0.680;2023-02-22T00:11:02;100315;;;8.38;77.69
57250;BME280;43102;52.014;-0.680;2023-02-22T00:12:00;100318;;;8.41;77.60
57250;BME280;43102;52.014;-0.680;2023-02-22T00:13:00;100318;;;8.41;77.60
57250;BME280;43102;52.014;-0.680;2023-02-22T00:14:00;100318;;;8.41;77.60
57250;BME280;43102;52.014;-0.680;2023-02-22T00:15:00;100318;;;8.41;77.60
57250;BME280;43102;52.014;-0.680;2023-02-22T00:16:00;100318;;;8.41;77.60
57250;BME280;43102;52.014;-0.680;2023-02-22T00:17:00;100318;;;8.38;77.49
57250;BME280;43102;52.014;-0.680;2023-02-22T00:18:00;100318;;;8.38;77.49
57250;BME280;43102;52.014;-0.680;2023-02-22T00:19:00;100318;;;8.38;77.49
57250;BME280;43102;52.014;-0.680;2023-02-22T00:20:00;100318;;;8.38;77.49
57250;BME280;43102;52.014;-0.680;2023-02-22T00:21:00;100318;;;8.38;77.49
57250;BME280;43102;52.014;-0.680;2023-02-22T00:22:00;100324;;;8.36;77.43
57250;BME280;43102;52.014;-0.680;2023-02-22T00:23:00;100324;;;8.36;77.43
57250;BME280;43102;52.014;-0.680;2023-02-22T00:24:00;100324;;;8.36;77.43
57250;BME280;43102;52.014;-0.680;2023-02-22T00:25:00;100324;;;8.36;77.43
57250;BME280;43102;52.014;-0.680;2023-02-22T00:26:00;100324;;;8.36;77.43
57250;BME280;43102;52.014;-0.680;2023-02-22T00:27:00;100327;;;8.34;77.46
57250;BME280;43102;52.014;-0.680;2023-02-22T00:28:00;100327;;;8.34;77.46
57250;BME280;43102;52.014;-0.680;2023-02-22T00:29:00;100327;;;8.34;77.46
57250;BME280;43102;52.014;-0.680;2023-02-22T00:30:01;100327;;;8.34;77.46
57250;BME280;43102;52.014;-0.680;2023-02-22T00:31:00;100327;;;8.34;77.46
57250;BME280;43102;52.014;-0.680;2023-02-22T00:32:00;100329;;;8.29;77.44
57250;BME280;43102;52.014;-0.680;2023-02-22T00:33:00;100329;;;8.29;77.44
57250;BME280;43102;52.014;-0.680;2023-02-22T00:34:00;100329;;;8.29;77.44
57250;BME280;43102;52.014;-0.680;2023-02-22T00:35:00;100329;;;8.29;77.44
57250;BME280;43102;52.014;-0.680;2023-02-22T00:36:00;100329;;;8.29;77.44
57250;BME280;43102;52.014;-0.680;2023-02-22T00:37:00;100323;;;8.22;77.74
57250;BME280;43102;52.014;-0.680;2023-02-22T00:38:01;100323;;;8.22;77.74
57250;BME280;43102;52.014;-0.680;2023-02-22T00:39:00;100323;;;8.22;77.74
57250;BME280;43102;52.014;-0.680;2023-02-22T00:40:00;100323;;;8.22;77.74
57250;BME280;43102;52.014;-0.680;2023-02-22T00:41:00;100323;;;8.22;77.74
57250;BME280;43102;52.014;-0.680;2023-02-22T00:42:00;100327;;;8.31;77.34
57250;BME280;43102;52.014;-0.680;2023-02-22T00:43:01;100327;;;8.31;77.34
57250;BME280;43102;52.014;-0.680;2023-02-22T00:44:00;100327;;;8.31;77.34
57250;BME280;43102;52.014;-0.680;2023-02-22T00:45:00;100327;;;8.31;77.34
57250;BME280;43102;52.014;-0.680;2023-02-22T00:46:00;100327;;;8.31;77.34
57250;BME280;43102;52.014;-0.680;2023-02-22T00:47:00;100322;;;8.31;77.33
57250;BME280;43102;52.014;-0.680;2023-02-22T00:48:00;100322;;;8.31;77.33
57250;BME280;43102;52.014;-0.680;2023-02-22T00:49:00;100322;;;8.31;77.33
57250;BME280;43102;52.014;-0.680;2023-02-22T00:50:00;100322;;;8.31;77.33
57250;BME280;43102;52.014;-0.680;2023-02-22T00:51:00;100322;;;8.31;77.33
57250;BME280;43102;52.014;-0.680;2023-02-22T00:52:00;100314;;;8.31;77.56
57250;BME280;43102;52.014;-0.680;2023-02-22T00:53:01;100314;;;8.31;77.56
57250;BME280;43102;52.014;-0.680;2023-02-22T00:54:00;100314;;;8.31;77.56
57250;BME280;43102;52.014;-0.680;2023-02-22T00:55:00;100314;;;8.31;77.56
57250;BME280;43102;52.014;-0.680;2023-02-22T00:56:00;100314;;;8.31;77.56
57250;BME280;43102;52.014;-0.680;2023-02-22T00:57:00;100315;;;8.24;78.19
57250;BME280;43102;52.014;-0.680;2023-02-22T00:58:00;100315;;;8.24;78.19
57250;BME280;43102;52.014;-0.680;2023-02-22T00:59:00;100315;;;8.24;78.19
57250;BME280;43102;52.014;-0.680;2023-02-22T01:00:01;100315;;;8.24;78.19
57250;BME280;43102;52.014;-0.680;2023-02-22T01:01:00;100315;;;8.24;78.19
57250;BME280;43102;52.014;-0.680;2023-02-22T01:02:00;100309;;;8.24;78.26
57250;BME280;43102;52.014;-0.680;2023-02-22T01:03:00;100309;;;8.24;78.26
57250;BME280;43102;52.014;-0.680;2023-02-22T01:04:00;100309;;;8.24;78.26
57250;BME280;43102;52.014;-0.680;2023-02-22T01:05:00;100309;;;8.24;78.26
57250;BME280;43102;52.014;-0.680;2023-02-22T01:06:00;100309;;;8.24;78.26
57250;BME280;43102;52.014;-0.680;2023-02-22T01:07:00;100307;;;8.20;78.67
57250;BME280;43102;52.014;-0.680;2023-02-22T01:08:00;100307;;;8.20;78.67
57250;BME280;43102;52.014;-0.680;2023-02-22T01:09:00;100307;;;8.20;78.67
57250;BME280;43102;52.014;-0.680;2023-02-22T01:10:01;100307;;;8.20;78.67
57250;BME280;43102;52.014;-0.680;2023-02-22T01:11:00;100307;;;8.20;78.67
57250;BME280;43102;52.014;-0.680;2023-02-22T01:12:00;100307;;;8.20;78.59
57250;BME280;43102;52.014;-0.680;2023-02-22T01:13:00;100307;;;8.20;78.59
57250;BME280;43102;52.014;-0.680;2023-02-22T01:14:00;100307;;;8.20;78.59
57250;BME280;43102;52.014;-0.680;2023-02-22T01:15:01;100307;;;8.20;78.59
57250;BME280;43102;52.014;-0.680;2023-02-22T01:16:00;100307;;;8.20;78.59
57250;BME280;43102;52.014;-0.680;2023-02-22T01:17:00;100298;;;8.19;78.97
57250;BME280;43102;52.014;-0.680;2023-02-22T01:18:00;100298;;;8.19;78.97
57250;BME280;43102;52.014;-0.680;2023-02-22T01:19:00;100298;;;8.19;78.97
57250;BME280;43102;52.014;-0.680;2023-02-22T01:20:00;100298;;;8.19;78.97
57250;BME280;43102;52.014;-0.680;2023-02-22T01:21:00;100298;;;8.19;78.97
57250;BME280;43102;52.014;-0.680;2023-02-22T01:22:00;100282;;;8.20;78.93
57250;BME280;43102;52.014;-0.680;2023-02-22T01:23:01;100282;;;8.20;78.93
57250;BME280;43102;52.014;-0.680;2023-02-22T01:24:00;100282;;;8.20;78.93
57250;BME280;43102;52.014;-0.680;2023-02-22T01:25:00;100282;;;8.20;78.93
57250;BME280;43102;52.014;-0.680;2023-02-22T01:26:00;100282;;;8.20;78.93
57250;BME280;43102;52.014;-0.680;2023-02-22T01:27:00;100261;;;8.15;79.08
57250;BME280;43102;52.014;-0.680;2023-02-22T01:28:00;100261;;;8.15;79.08
57250;BME280;43102;52.014;-0.680;2023-02-22T01:29:00;100261;;;8.15;79.08
57250;BME280;43102;52.014;-0.680;2023-02-22T01:30:00;100261;;;8.15;79.08
57250;BME280;43102;52.014;-0.680;2023-02-22T01:31:00;100261;;;8.15;79.08
57250;BME280;43102;52.014;-0.680;2023-02-22T01:32:00;100276;;;8.18;79.01
57250;BME280;43102;52.014;-0.680;2023-02-22T01:33:01;100276;;;8.18;79.01
57250;BME280;43102;52.014;-0.680;2023-02-22T01:34:00;100276;;;8.18;79.01
57250;BME280;43102;52.014;-0.680;2023-02-22T01:35:00;100276;;;8.18;79.01
57250;BME280;43102;52.014;-0.680;2023-02-22T01:36:00;100276;;;8.18;79.01
57250;BME280;43102;52.014;-0.680;2023-02-22T01:37:00;100278;;;8.11;79.55
57250;BME280;43102;52.014;-0.680;2023-02-22T01:38:00;100278;;;8.11;79.55
57250;BME280;43102;52.014;-0.680;2023-02-22T01:39:00;100278;;;8.11;79.55
57250;BME280;43102;52.014;-0.680;2023-02-22T01:40:01;100278;;;8.11;79.55
57250;BME280;43102;52.014;-0.680;2023-02-22T01:41:00;100278;;;8.11;79.55
57250;BME280;43102;52.014;-0.680;2023-02-22T01:42:00;100279;;;8.08;79.51
57250;BME280;43102;52.014;-0.680;2023-02-22T01:43:01;100279;;;8.08;79.51
57250;BME280;43102;52.014;-0.680;2023-02-22T01:46:02;100279;;;8.08;79.51
57250;BME280;43102;52.014;-0.680;2023-02-22T01:47:01;100284;;;8.04;79.89
57250;BME280;43102;52.014;-0.680;2023-02-22T01:49:02;100284;;;8.04;79.89
57250;BME280;43102;52.014;-0.680;2023-02-22T01:50:00;100284;;;8.04;79.89
57250;BME280;43102;52.014;-0.680;2023-02-22T01:51:02;100284;;;8.04;79.89
57250;BME280;43102;52.014;-0.680;2023-02-22T01:52:01;100273;;;8.05;79.71
57250;BME280;43102;52.014;-0.680;2023-02-22T01:53:00;100273;;;8.05;79.71
57250;BME280;43102;52.014;-0.680;2023-02-22T01:54:02;100273;;;8.05;79.71
57250;BME280;43102;52.014;-0.680;2023-02-22T01:55:00;100273;;;8.05;79.71
57250;BME280;43102;52.014;-0.680;2023-02-22T01:56:00;100273;;;8.05;79.71
57250;BME280;43102;52.014;-0.680;2023-02-22T01:58:00;100271;;;8.00;79.98
57250;BME280;43102;52.014;-0.680;2023-02-22T01:59:01;100271;;;8.00;79.98
57250;BME280;43102;52.014;-0.680;2023-02-22T02:00:07;100271;;;8.00;79.98
57250;BME280;43102;52.014;-0.680;2023-02-22T02:01:00;100271;;;8.00;79.98
57250;BME280;43102;52.014;-0.680;2023-02-22T02:02:00;100266;;;7.99;79.98
57250;BME280;43102;52.014;-0.680;2023-02-22T02:03:04;100266;;;7.99;79.98
57250;BME280;43102;52.014;-0.680;2023-02-22T02:04:02;100266;;;7.99;79.98
57250;BME280;43102;52.014;-0.680;2023-02-22T02:05:00;100266;;;7.99;79.98
57250;BME280;43102;52.014;-0.680;2023-02-22T02:06:02;100266;;;7.99;79.98
57250;BME280;43102;52.014;-0.680;2023-02-22T02:07:02;100257;;;7.95;80.37
57250;BME280;43102;52.014;-0.680;2023-02-22T02:08:02;100257;;;7.95;80.37
57250;BME280;43102;52.014;-0.680;2023-02-22T02:09:03;100257;;;7.95;80.37
57250;BME280;43102;52.014;-0.680;2023-02-22T02:10:01;100257;;;7.95;80.37
57250;BME280;43102;52.014;-0.680;2023-02-22T02:11:00;100257;;;7.95;80.37
57250;BME280;43102;52.014;-0.680;2023-02-22T02:12:00;100255;;;7.96;80.31
57250;BME280;43102;52.014;-0.680;2023-02-22T02:13:00;100255;;;7.96;80.31
57250;BME280;43102;52.014;-0.680;2023-02-22T02:14:00;100255;;;7.96;80.31
57250;BME280;43102;52.014;-0.680;2023-02-22T02:16:00;100255;;;7.96;80.31
57250;BME280;43102;52.014;-0.680;2023-02-22T02:17:00;100254;;;7.98;80.15
57250;BME280;43102;52.014;-0.680;2023-02-22T02:18:02;100254;;;7.98;80.15
57250;BME280;43102;52.014;-0.680;2023-02-22T02:19:00;100254;;;7.98;80.15
57250;BME280;43102;52.014;-0.680;2023-02-22T02:30:14;100247;;;7.99;80.00
57250;BME280;43102;52.014;-0.680;2023-02-22T02:34:02;100239;;;7.95;80.17
57250;BME280;43102;52.014;-0.680;2023-02-22T02:35:05;100239;;;7.95;80.17
57250;BME280;43102;52.014;-0.680;2023-02-22T02:36:09;100239;;;7.95;80.17
57250;BME280;43102;52.014;-0.680;2023-02-22T02:37:04;100236;;;7.91;80.69
57250;BME280;43102;52.014;-0.680;2023-02-22T02:38:02;100236;;;7.91;80.69
57250;BME280;43102;52.014;-0.680;2023-02-22T02:39:19;100236;;;7.91;80.69
57250;BME280;43102;52.014;-0.680;2023-02-22T02:42:01;100233;;;7.88;80.65
57250;BME280;43102;52.014;-0.680;2023-02-22T02:44:03;100233;;;7.88;80.65
57250;BME280;43102;52.014;-0.680;2023-02-22T02:45:03;100233;;;7.88;80.65
57250;BME280;43102;52.014;-0.680;2023-02-22T02:47:02;100225;;;7.91;80.51
57250;BME280;43102;52.014;-0.680;2023-02-22T02:48:00;100225;;;7.91;80.51
57250;BME280;43102;52.014;-0.680;2023-02-22T02:49:03;100225;;;7.91;80.51
57250;BME280;43102;52.014;-0.680;2023-02-22T02:50:03;100225;;;7.91;80.51
57250;BME280;43102;52.014;-0.680;2023-02-22T02:51:00;100225;;;7.91;80.51
57250;BME280;43102;52.014;-0.680;2023-02-22T02:52:00;100227;;;7.92;80.51
57250;BME280;43102;52.014;-0.680;2023-02-22T02:53:01;100227;;;7.92;80.51
57250;BME280;43102;52.014;-0.680;2023-02-22T02:54:00;100227;;;7.92;80.51
57250;BME280;43102;52.014;-0.680;2023-02-22T02:55:01;100227;;;7.92;80.51
57250;BME280;43102;52.014;-0.680;2023-02-22T02:56:00;100227;;;7.92;80.51
57250;BME280;43102;52.014;-0.680;2023-02-22T02:57:01;100215;;;7.93;80.48
57250;BME280;43102;52.014;-0.680;2023-02-22T02:58:00;100215;;;7.93;80.48
57250;BME280;43102;52.014;-0.680;2023-02-22T02:59:00;100215;;;7.93;80.48
57250;BME280;43102;52.014;-0.680;2023-02-22T03:00:00;100215;;;7.93;80.48
57250;BME280;43102;52.014;-0.680;2023-02-22T03:01:00;100215;;;7.93;80.48
57250;BME280;43102;52.014;-0.680;2023-02-22T03:13:13;100200;;;7.90;80.95
57250;BME280;43102;52.014;-0.680;2023-02-22T03:15:04;100200;;;7.90;80.95
57250;BME280;43102;52.014;-0.680;2023-02-22T03:16:05;100200;;;7.90;80.95
57250;BME280;43102;52.014;-0.680;2023-02-22T03:17:02;100198;;;7.93;80.72
57250;BME280;43102;52.014;-0.680;2023-02-22T03:18:08;100198;;;7.93;80.72
57250;BME280;43102;52.014;-0.680;2023-02-22T03:19:09;100198;;;7.93;80.72
57250;BME280;43102;52.014;-0.680;2023-02-22T03:20:03;100198;;;7.93;80.72
57250;BME280;43102;52.014;-0.680;2023-02-22T03:23:03;100191;;;7.95;80.83
57250;BME280;43102;52.014;-0.680;2023-02-22T03:25:01;100191;;;7.95;80.83
57250;BME280;43102;52.014;-0.680;2023-02-22T03:26:02;100191;;;7.95;80.83
57250;BME280;43102;52.014;-0.680;2023-02-22T03:27:09;100185;;;7.95;80.64
57250;BME280;43102;52.014;-0.680;2023-02-22T03:28:02;100185;;;7.95;80.64
57250;BME280;43102;52.014;-0.680;2023-02-22T03:29:00;100185;;;7.95;80.64
57250;BME280;43102;52.014;-0.680;2023-02-22T03:30:01;100185;;;7.95;80.64
57250;BME280;43102;52.014;-0.680;2023-02-22T03:31:01;100185;;;7.95;80.64
57250;BME280;43102;52.014;-0.680;2023-02-22T03:32:00;100185;;;7.95;80.88
57250;BME280;43102;52.014;-0.680;2023-02-22T03:33:09;100185;;;7.95;80.88
57250;BME280;43102;52.014;-0.680;2023-02-22T03:34:01;100185;;;7.95;80.88
57250;BME280;43102;52.014;-0.680;2023-02-22T03:35:02;100185;;;7.95;80.88
57250;BME280;43102;52.014;-0.680;2023-02-22T03:36:02;100185;;;7.95;80.88
57250;BME280;43102;52.014;-0.680;2023-02-22T03:37:02;100188;;;7.93;81.15
57250;BME280;43102;52.014;-0.680;2023-02-22T03:38:01;100188;;;7.93;81.15
57250;BME280;43102;52.014;-0.680;2023-02-22T03:39:00;100188;;;7.93;81.15
57250;BME280;43102;52.014;-0.680;2023-02-22T03:40:01;100188;;;7.93;81.15
57250;BME280;43102;52.014;-0.680;2023-02-22T03:41:00;100188;;;7.93;81.15
57250;BME280;43102;52.014;-0.680;2023-02-22T03:42:03;100194;;;7.92;81.08
57250;BME280;43102;52.014;-0.680;2023-02-22T03:43:18;100194;;;7.92;81.08
57250;BME280;43102;52.014;-0.680;2023-02-22T03:44:02;100194;;;7.92;81.08
57250;BME280;43102;52.014;-0.680;2023-02-22T03:45:01;100194;;;7.92;81.08
57250;BME280;43102;52.014;-0.680;2023-02-22T03:46:00;100194;;;7.92;81.08
57250;BME280;43102;52.014;-0.680;2023-02-22T03:47:01;100201;;;7.92;81.10
57250;BME280;43102;52.014;-0.680;2023-02-22T03:48:02;100201;;;7.92;81.10
57250;BME280;43102;52.014;-0.680;2023-02-22T03:49:01;100201;;;7.92;81.10
57250;BME280;43102;52.014;-0.680;2023-02-22T03:50:04;100201;;;7.92;81.10
57250;BME280;43102;52.014;-0.680;2023-02-22T03:51:00;100201;;;7.92;81.10
57250;BME280;43102;52.014;-0.680;2023-02-22T03:52:00;100202;;;7.91;81.17
57250;BME280;43102;52.014;-0.680;2023-02-22T03:53:00;100202;;;7.91;81.17
57250;BME280;43102;52.014;-0.680;2023-02-22T03:54:01;100202;;;7.91;81.17
57250;BME280;43102;52.014;-0.680;2023-02-22T03:55:00;100202;;;7.91;81.17
57250;BME280;43102;52.014;-0.680;2023-02-22T03:56:00;100202;;;7.91;81.17
57250;BME280;43102;52.014;-0.680;2023-02-22T03:57:05;100191;;;7.97;81.01
57250;BME280;43102;52.014;-0.680;2023-02-22T03:58:01;100191;;;7.97;81.01
57250;BME280;43102;52.014;-0.680;2023-02-22T03:59:02;100191;;;7.97;81.01
57250;BME280;43102;52.014;-0.680;2023-02-22T04:00:00;100191;;;7.97;81.01
57250;BME280;43102;52.014;-0.680;2023-02-22T04:01:00;100191;;;7.97;81.01
57250;BME280;43102;52.014;-0.680;2023-02-22T04:02:00;100182;;;7.96;81.16
57250;BME280;43102;52.014;-0.680;2023-02-22T04:03:01;100182;;;7.96;81.16
57250;BME280;43102;52.014;-0.680;2023-02-22T04:04:00;100182;;;7.96;81.16
57250;BME280;43102;52.014;-0.680;2023-02-22T04:05:00;100182;;;7.96;81.16
57250;BME280;43102;52.014;-0.680;2023-02-22T04:06:00;100182;;;7.96;81.16
57250;BME280;43102;52.014;-0.680;2023-02-22T04:07:00;100182;;;7.93;81.56
57250;BME280;43102;52.014;-0.680;2023-02-22T04:08:00;100182;;;7.93;81.56
57250;BME280;43102;52.014;-0.680;2023-02-22T04:09:00;100182;;;7.93;81.56
57250;BME280;43102;52.014;-0.680;2023-02-22T04:10:00;100182;;;7.93;81.56
57250;BME280;43102;52.014;-0.680;2023-02-22T04:11:00;100182;;;7.93;81.56
57250;BME280;43102;52.014;-0.680;2023-02-22T04:12:00;100175;;;7.97;81.35
57250;BME280;43102;52.014;-0.680;2023-02-22T04:13:00;100175;;;7.97;81.35
57250;BME280;43102;52.014;-0.680;2023-02-22T04:14:00;100175;;;7.97;81.35
57250;BME280;43102;52.014;-0.680;2023-02-22T04:15:00;100175;;;7.97;81.35
57250;BME280;43102;52.014;-0.680;2023-02-22T04:16:00;100175;;;7.97;81.35
57250;BME280;43102;52.014;-0.680;2023-02-22T04:17:00;100179;;;8.00;81.21
57250;BME280;43102;52.014;-0.680;2023-02-22T04:18:00;100179;;;8.00;81.21
57250;BME280;43102;52.014;-0.680;2023-02-22T04:19:00;100179;;;8.00;81.21
57250;BME280;43102;52.014;-0.680;2023-02-22T04:20:00;100179;;;8.00;81.21
57250;BME280;43102;52.014;-0.680;2023-02-22T04:21:00;100179;;;8.00;81.21
57250;BME280;43102;52.014;-0.680;2023-02-22T04:22:00;100171;;;8.01;81.21
57250;BME280;43102;52.014;-0.680;2023-02-22T04:23:00;100171;;;8.01;81.21
57250;BME280;43102;52.014;-0.680;2023-02-22T04:24:00;100171;;;8.01;81.21
57250;BME280;43102;52.014;-0.680;2023-02-22T04:25:00;100171;;;8.01;81.21
57250;BME280;43102;52.014;-0.680;2023-02-22T04:26:00;100171;;;8.01;81.21
57250;BME280;43102;52.014;-0.680;2023-02-22T04:27:00;100159;;;7.97;81.33
57250;BME280;43102;52.014;-0.680;2023-02-22T04:28:00;100159;;;7.97;81.33
57250;BME280;43102;52.014;-0.680;2023-02-22T04:29:00;100159;;;7.97;81.33
57250;BME280;43102;52.014;-0.680;2023-02-22T04:30:00;100159;;;7.97;81.33
57250;BME280;43102;52.014;-0.680;2023-02-22T04:31:00;100159;;;7.97;81.33
57250;BME280;43102;52.014;-0.680;2023-02-22T04:32:00;100164;;;7.98;81.34
57250;BME280;43102;52.014;-0.680;2023-02-22T04:33:00;100164;;;7.98;81.34
57250;BME280;43102;52.014;-0.680;2023-02-22T04:34:00;100164;;;7.98;81.34
57250;BME280;43102;52.014;-0.680;2023-02-22T04:35:00;100164;;;7.98;81.34
57250;BME280;43102;52.014;-0.680;2023-02-22T04:36:00;100164;;;7.98;81.34
57250;BME280;43102;52.014;-0.680;2023-02-22T04:37:00;100167;;;8.01;81.33
57250;BME280;43102;52.014;-0.680;2023-02-22T04:38:00;100167;;;8.01;81.33
57250;BME280;43102;52.014;-0.680;2023-02-22T04:39:00;100167;;;8.01;81.33
57250;BME280;43102;52.014;-0.680;2023-02-22T04:40:01;100167;;;8.01;81.33
57250;BME280;43102;52.014;-0.680;2023-02-22T04:41:00;100167;;;8.01;81.33
57250;BME280;43102;52.014;-0.680;2023-02-22T04:42:00;100159;;;8.04;81.20
57250;BME280;43102;52.014;-0.680;2023-02-22T04:43:00;100159;;;8.04;81.20
57250;BME280;43102;52.014;-0.680;2023-02-22T04:44:00;100159;;;8.04;81.20
57250;BME280;43102;52.014;-0.680;2023-02-22T04:45:00;100159;;;8.04;81.20
57250;BME280;43102;52.014;-0.680;2023-02-22T04:46:00;100159;;;8.04;81.20
57250;BME280;43102;52.014;-0.680;2023-02-22T04:47:00;100155;;;8.02;81.17
57250;BME280;43102;52.014;-0.680;2023-02-22T04:48:00;100155;;;8.02;81.17
57250;BME280;43102;52.014;-0.680;2023-02-22T04:49:00;100155;;;8.02;81.17
57250;BME280;43102;52.014;-0.680;2023-02-22T04:50:00;100155;;;8.02;81.17
57250;BME280;43102;52.014;-0.680;2023-02-22T04:51:00;100155;;;8.02;81.17
57250;BME280;43102;52.014;-0.680;2023-02-22T04:52:00;100150;;;8.07;80.91
57250;BME280;43102;52.014;-0.680;2023-02-22T04:53:00;100150;;;8.07;80.91
57250;BME280;43102;52.014;-0.680;2023-02-22T04:54:00;100150;;;8.07;80.91
57250;BME280;43102;52.014;-0.680;2023-02-22T04:55:00;100150;;;8.07;80.91
57250;BME280;43102;52.014;-0.680;2023-02-22T04:56:00;100150;;;8.07;80.91
57250;BME280;43102;52.014;-0.680;2023-02-22T04:57:00;100146;;;8.08;80.89
57250;BME280;43102;52.014;-0.680;2023-02-22T04:58:00;100146;;;8.08;80.89
57250;BME280;43102;52.014;-0.680;2023-02-22T04:59:00;100146;;;8.08;80.89
57250;BME280;43102;52.014;-0.680;2023-02-22T05:00:00;100146;;;8.08;80.89
57250;BME280;43102;52.014;-0.680;2023-02-22T05:01:00;100146;;;8.08;80.89
57250;BME280;43102;52.014;-0.680;2023-02-22T05:02:00;100139;;;8.09;80.91
57250;BME280;43102;52.014;-0.680;2023-02-22T05:03:00;100139;;;8.09;80.91
57250;BME280;43102;52.014;-0.680;2023-02-22T05:04:01;100139;;;8.09;80.91
57250;BME280;43102;52.014;-0.680;2023-02-22T05:05:00;100139;;;8.09;80.91
57250;BME280;43102;52.014;-0.680;2023-02-22T05:06:00;100139;;;8.09;80.91
57250;BME280;43102;52.014;-0.680;2023-02-22T05:07:00;100142;;;8.07;81.29
57250;BME280;43102;52.014;-0.680;2023-02-22T05:08:00;100142;;;8.07;81.29
57250;BME280;43102;52.014;-0.680;2023-02-22T05:09:00;100142;;;8.07;81.29
57250;BME280;43102;52.014;-0.680;2023-02-22T05:10:00;100142;;;8.07;81.29
57250;BME280;43102;52.014;-0.680;2023-02-22T05:11:00;100142;;;8.07;81.29
57250;BME280;43102;52.014;-0.680;2023-02-22T05:12:00;100140;;;8.05;81.31
57250;BME280;43102;52.014;-0.680;2023-02-22T05:13:00;100140;;;8.05;81.31
57250;BME280;43102;52.014;-0.680;2023-02-22T05:14:00;100140;;;8.05;81.31
57250;BME280;43102;52.014;-0.680;2023-02-22T05:15:00;100140;;;8.05;81.31
57250;BME280;43102;52.014;-0.680;2023-02-22T05:16:00;100140;;;8.05;81.31
57250;BME280;43102;52.014;-0.680;2023-02-22T05:17:00;100139;;;8.10;81.18
57250;BME280;43102;52.014;-0.680;2023-02-22T05:18:00;100139;;;8.10;81.18
57250;BME280;43102;52.014;-0.680;2023-02-22T05:19:00;100139;;;8.10;81.18
57250;BME280;43102;52.014;-0.680;2023-02-22T05:20:00;100139;;;8.10;81.18
57250;BME280;43102;52.014;-0.680;2023-02-22T05:21:00;100139;;;8.10;81.18
57250;BME280;43102;52.014;-0.680;2023-02-22T05:22:00;100137;;;8.11;81.29
57250;BME280;43102;52.014;-0.680;2023-02-22T05:23:00;100137;;;8.11;81.29
57250;BME280;43102;52.014;-0.680;2023-02-22T05:24:00;100137;;;8.11;81.29
57250;BME280;43102;52.014;-0.680;2023-02-22T05:25:00;100137;;;8.11;81.29
57250;BME280;43102;52.014;-0.680;2023-02-22T05:26:00;100137;;;8.11;81.29
57250;BME280;43102;52.014;-0.680;2023-02-22T05:27:00;100132;;;8.11;81.35
57250;BME280;43102;52.014;-0.680;2023-02-22T05:28:01;100132;;;8.11;81.35
57250;BME280;43102;52.014;-0.680;2023-02-22T05:29:00;100132;;;8.11;81.35
57250;BME280;43102;52.014;-0.680;2023-02-22T05:30:00;100132;;;8.11;81.35
57250;BME280;43102;52.014;-0.680;2023-02-22T05:31:00;100132;;;8.11;81.35
57250;BME280;43102;52.014;-0.680;2023-02-22T05:32:00;100130;;;8.07;81.37
57250;BME280;43102;52.014;-0.680;2023-02-22T05:33:00;100130;;;8.07;81.37
57250;BME280;43102;52.014;-0.680;2023-02-22T05:34:00;100130;;;8.07;81.37
57250;BME280;43102;52.014;-0.680;2023-02-22T05:35:00;100130;;;8.07;81.37
57250;BME280;43102;52.014;-0.680;2023-02-22T05:36:00;100130;;;8.07;81.37
57250;BME280;43102;52.014;-0.680;2023-02-22T05:37:00;100125;;;8.10;81.74
57250;BME280;43102;52.014;-0.680;2023-02-22T05:38:00;100125;;;8.10;81.74
57250;BME280;43102;52.014;-0.680;2023-02-22T05:39:00;100125;;;8.10;81.74
57250;BME280;43102;52.014;-0.680;2023-02-22T05:40:00;100125;;;8.10;81.74
57250;BME280;43102;52.014;-0.680;2023-02-22T05:41:00;100125;;;8.10;81.74
57250;BME280;43102;52.014;-0.680;2023-02-22T05:42:00;100116;;;8.13;81.57
57250;BME280;43102;52.014;-0.680;2023-02-22T05:43:00;100116;;;8.13;81.57
57250;BME280;43102;52.014;-0.680;2023-02-22T05:44:00;100116;;;8.13;81.57
57250;BME280;43102;52.014;-0.680;2023-02-22T05:45:00;100116;;;8.13;81.57
57250;BME280;43102;52.014;-0.680;2023-02-22T05:46:00;100116;;;8.13;81.57
57250;BME280;43102;52.014;-0.680;2023-02-22T05:47:00;100114;;;8.14;81.63
57250;BME280;43102;52.014;-0.680;2023-02-22T05:48:00;100114;;;8.14;81.63
57250;BME280;43102;52.014;-0.680;2023-02-22T05:49:00;100114;;;8.14;81.63
57250;BME280;43102;52.014;-0.680;2023-02-22T05:50:00;100114;;;8.14;81.63
57250;BME280;43102;52.014;-0.680;2023-02-22T05:51:00;100114;;;8.14;81.63
57250;BME280;43102;52.014;-0.680;2023-02-22T05:52:00;100112;;;8.13;81.55
57250;BME280;43102;52.014;-0.680;2023-02-22T05:53:00;100112;;;8.13;81.55
57250;BME280;43102;52.014;-0.680;2023-02-22T05:54:00;100112;;;8.13;81.55
57250;BME280;43102;52.014;-0.680;2023-02-22T05:55:00;100112;;;8.13;81.55
57250;BME280;43102;52.014;-0.680;2023-02-22T05:56:00;100112;;;8.13;81.55
57250;BME280;43102;52.014;-0.680;2023-02-22T05:57:00;100109;;;8.12;81.50
57250;BME280;43102;52.014;-0.680;2023-02-22T05:58:00;100109;;;8.12;81.50
57250;BME280;43102;52.014;-0.680;2023-02-22T05:59:00;100109;;;8.12;81.50
57250;BME280;43102;52.014;-0.680;2023-02-22T06:00:01;100109;;;8.12;81.50
57250;BME280;43102;52.014;-0.680;2023-02-22T06:01:00;100109;;;8.12;81.50
57250;BME280;43102;52.014;-0.680;2023-02-22T06:02:00;100116;;;8.11;81.45
57250;BME280;43102;52.014;-0.680;2023-02-22T06:03:01;100116;;;8.11;81.45